createdAt,value
2022-09-21T00:00:01.749Z,2539.741
2022-09-21T00:05:01.579Z,3011.358
2022-09-21T00:10:01.750Z,516.641
2022-09-21T00:15:05.400Z,227.46
2022-09-21T00:20:01.640Z,168.945
2022-09-21T00:25:01.827Z,156.442
2022-09-21T00:30:01.618Z,146.06300000000002
2022-09-21T00:35:01.632Z,357.205
2022-09-21T00:40:01.700Z,146.745
2022-09-21T00:45:04.492Z,243.161
2022-09-21T00:50:01.888Z,262.416
2022-09-21T00:55:01.690Z,256.551
2022-09-21T01:00:01.634Z,192.597
2022-09-21T01:05:01.655Z,171.398
2022-09-21T01:10:01.823Z,172.07500000000002
2022-09-21T01:15:06.688Z,170.827
2022-09-21T01:20:01.716Z,1567.634
2022-09-21T01:25:01.710Z,2276.281
2022-09-21T01:30:01.699Z,2145.776
2022-09-21T01:35:01.872Z,2427.492
2022-09-21T01:40:01.737Z,2539.6
2022-09-21T01:45:05.370Z,2518.402
2022-09-21T01:50:01.882Z,355.77
2022-09-21T01:55:01.738Z,146.344
2022-09-21T02:00:01.891Z,148.39000000000001
2022-09-21T02:05:01.731Z,157.877
2022-09-21T02:10:01.732Z,180.103
2022-09-21T02:15:08.411Z,304.878
2022-09-21T02:20:01.897Z,297.54200000000003
2022-09-21T02:25:01.696Z,288.606
2022-09-21T02:30:01.717Z,190.937
2022-09-21T02:35:01.749Z,172.275
2022-09-21T02:40:01.827Z,2048.163
2022-09-21T02:45:05.868Z,2278.5660000000003
2022-09-21T02:50:01.754Z,2311.055
2022-09-21T02:55:01.742Z,2360.608
2022-09-21T03:00:01.785Z,2965.794
2022-09-21T03:05:01.858Z,349.935
2022-09-21T03:10:01.892Z,446.137
2022-09-21T03:15:04.742Z,175.93
2022-09-21T03:20:01.795Z,147.67600000000002
2022-09-21T03:25:01.768Z,145.156
2022-09-21T03:30:02.532Z,148.278
2022-09-21T03:35:01.900Z,168.113
2022-09-21T03:40:01.845Z,176.327
2022-09-21T03:45:04.901Z,288.028
2022-09-21T03:50:02.686Z,934.07
2022-09-21T03:55:02.044Z,2368.89
2022-09-21T04:00:01.803Z,2269.906
2022-09-21T04:05:01.904Z,1995.036
2022-09-21T04:10:01.814Z,2298.149
2022-09-21T04:15:06.600Z,2543.723
2022-09-21T04:20:01.857Z,1800.136
2022-09-21T04:25:01.827Z,152.087
2022-09-21T04:30:01.853Z,263.96500000000003
2022-09-21T04:35:01.877Z,311.692
2022-09-21T04:40:02.014Z,428.718
2022-09-21T04:45:06.305Z,200.506
2022-09-21T04:50:01.844Z,178.585
2022-09-21T04:55:01.859Z,175.565
2022-09-21T05:00:02.055Z,475.889
2022-09-21T05:05:01.885Z,2285.289
2022-09-21T05:10:01.880Z,2351.685
2022-09-21T05:15:04.399Z,2518.126
2022-09-21T05:20:01.885Z,1453.431
2022-09-21T05:25:02.218Z,355.375
2022-09-21T05:30:01.914Z,191.246
2022-09-21T05:35:01.949Z,828.957
2022-09-21T05:40:01.939Z,275.82
2022-09-21T05:45:06.363Z,2905.204
2022-09-21T05:50:02.109Z,2981.76
2022-09-21T05:55:01.871Z,1233.017
2022-09-21T06:00:01.935Z,393.749
2022-09-21T06:05:01.910Z,357.793
2022-09-21T06:10:01.966Z,276.537
2022-09-21T06:15:05.858Z,169.512
2022-09-21T06:20:01.923Z,157.461
2022-09-21T06:25:01.949Z,1400.396
2022-09-21T06:30:01.953Z,2325.774
2022-09-21T06:35:02.078Z,2190.122
2022-09-21T06:40:02.205Z,2773.936
2022-09-21T06:45:05.641Z,1793.224
2022-09-21T06:50:02.005Z,290.158
2022-09-21T06:55:01.992Z,278.005
2022-09-21T07:00:02.136Z,182.51
2022-09-21T07:05:02.484Z,178.247
2022-09-21T07:10:05.989Z,173.929
2022-09-21T07:15:10.108Z,372.15000000000003
2022-09-21T07:20:02.087Z,172.921
2022-09-21T07:25:02.157Z,227.363
2022-09-21T07:30:01.976Z,277.794
2022-09-21T07:35:01.995Z,264.287
2022-09-21T07:40:02.066Z,235.346
2022-09-21T07:45:07.002Z,154.388
2022-09-21T07:50:02.066Z,155.653
2022-09-21T07:55:02.094Z,156.704
2022-09-21T08:00:02.026Z,154.516
2022-09-21T08:05:02.133Z,161.358
2022-09-21T08:10:02.020Z,253.472
2022-09-21T08:15:05.707Z,297.54
2022-09-21T08:20:02.075Z,292.54
2022-09-21T08:25:02.031Z,237.844
2022-09-21T08:30:02.261Z,365.127
2022-09-21T08:35:02.165Z,160.04500000000002
2022-09-21T08:40:02.071Z,160.025
2022-09-21T08:45:05.032Z,159.67600000000002
2022-09-21T08:50:02.264Z,160.012
2022-09-21T08:55:02.119Z,258.478
2022-09-21T09:00:02.141Z,275.037
2022-09-21T09:05:02.106Z,270.338
2022-09-21T09:10:02.155Z,234.87900000000002
2022-09-21T09:15:06.308Z,185.954
2022-09-21T09:20:02.088Z,195.58700000000002
2022-09-21T09:25:02.067Z,198.047
2022-09-21T09:30:03.439Z,199.303
2022-09-21T09:35:02.270Z,192.312
2022-09-21T09:40:02.194Z,290.488
2022-09-21T09:45:05.432Z,418.119
2022-09-21T09:50:02.096Z,381.621
2022-09-21T09:55:02.344Z,207.651
2022-09-21T10:00:02.144Z,163.945
2022-09-21T10:05:02.131Z,164.984
2022-09-21T10:10:02.163Z,164.935
2022-09-21T10:15:11.809Z,164.874
2022-09-21T10:20:02.195Z,180.969
2022-09-21T10:25:02.137Z,279.747
2022-09-21T10:30:02.143Z,265.98900000000003
2022-09-21T10:35:02.320Z,284.11400000000003
2022-09-21T10:40:02.212Z,219.393
2022-09-21T10:45:06.730Z,180.592
2022-09-21T10:50:02.196Z,177.092
2022-09-21T10:55:02.291Z,185.423
2022-09-21T11:00:02.227Z,149.494
2022-09-21T11:05:02.175Z,154.594
2022-09-21T11:10:02.176Z,450.225
2022-09-21T11:15:06.409Z,282.90500000000003
2022-09-21T11:20:02.475Z,272.786
2022-09-21T11:25:02.208Z,215.37800000000001
2022-09-21T11:30:02.175Z,153.78
2022-09-21T11:35:02.216Z,159.617
2022-09-21T11:40:02.480Z,178.91400000000002
2022-09-21T11:45:06.143Z,196.723
2022-09-21T11:50:26.238Z,190.991
2022-09-21T11:55:02.209Z,272.779
2022-09-21T12:00:02.394Z,303.407
2022-09-21T12:05:03.647Z,285.73
2022-09-21T12:20:02.464Z,269.563
2022-09-21T12:25:02.277Z,172.377
2022-09-21T12:30:02.243Z,166.847
2022-09-21T12:35:02.291Z,166.45600000000002
2022-09-21T12:40:02.596Z,275.79200000000003
2022-09-21T12:45:02.258Z,280.886
2022-09-21T12:50:02.321Z,273.151
2022-09-21T12:55:02.269Z,211.247
2022-09-21T13:00:02.547Z,171.142
2022-09-21T13:05:02.281Z,191.305
2022-09-21T13:10:02.263Z,191.191
2022-09-21T13:15:02.280Z,190.562
2022-09-21T13:20:02.466Z,189.04500000000002
2022-09-21T13:25:02.280Z,296.003
2022-09-21T13:30:02.309Z,353.313
2022-09-21T13:35:02.297Z,411.522
2022-09-21T13:40:02.581Z,191.577
2022-09-21T13:45:02.299Z,163.671
2022-09-21T13:50:02.336Z,159.89600000000002
2022-09-21T13:55:02.368Z,158.357
2022-09-21T14:00:02.463Z,191.359
2022-09-21T14:05:02.339Z,203.624
2022-09-21T14:10:02.318Z,318.06
2022-09-21T14:15:02.345Z,300.398
2022-09-21T14:20:02.562Z,284.618
2022-09-21T14:25:02.343Z,198.407
2022-09-21T14:30:04.989Z,172.632
2022-09-21T14:35:02.350Z,171.83
2022-09-21T14:40:03.710Z,172.095
2022-09-21T14:45:02.348Z,191.562
2022-09-21T14:50:06.245Z,433.814
2022-09-21T14:55:02.390Z,344.995
2022-09-21T15:00:02.559Z,344.967
2022-09-21T15:05:02.487Z,402.574
2022-09-21T15:10:02.461Z,259.4
2022-09-21T15:15:02.439Z,242.315
2022-09-21T15:20:02.574Z,225.291
2022-09-21T15:25:02.418Z,244.863
2022-09-21T15:30:02.458Z,283.862
2022-09-21T15:35:02.458Z,357.244
2022-09-21T15:40:02.659Z,402.974
2022-09-21T15:45:02.433Z,380.052
2022-09-21T15:50:02.462Z,331.009
2022-09-21T15:55:02.457Z,258.237
2022-09-21T16:00:02.625Z,212.60500000000002
2022-09-21T16:05:02.461Z,920.235
2022-09-21T16:10:02.553Z,1256.263
2022-09-21T16:15:04.232Z,4913.279
2022-09-21T16:20:02.566Z,7154.664
2022-09-21T16:25:02.443Z,6378.564
2022-09-21T16:30:02.443Z,3273.518
2022-09-21T16:35:02.660Z,1044.366
2022-09-21T16:40:02.501Z,218.19400000000002
2022-09-21T16:45:02.677Z,229.461
2022-09-21T16:50:02.472Z,215.425
2022-09-21T16:55:02.556Z,229.752
2022-09-21T17:00:02.484Z,234.246
2022-09-21T17:05:02.569Z,335.163
2022-09-21T17:10:02.479Z,367.182
2022-09-21T17:15:02.516Z,417.724
2022-09-21T17:20:02.503Z,362.232
2022-09-21T17:25:02.579Z,1109.56
2022-09-21T17:30:02.654Z,2881.859
2022-09-21T17:35:02.494Z,3017.518
2022-09-21T17:40:04.908Z,1143.847
2022-09-21T17:45:02.619Z,289.36400000000003
2022-09-21T17:50:02.768Z,421.124
2022-09-21T17:55:05.792Z,433.12600000000003
2022-09-21T18:00:02.777Z,1017.8430000000001
2022-09-21T18:05:02.551Z,2838.891
2022-09-21T18:10:02.525Z,2934.699
2022-09-21T18:15:02.704Z,2171.185
2022-09-21T18:20:02.556Z,263.845
2022-09-21T18:25:02.537Z,264.472
2022-09-21T18:30:02.570Z,417.819
2022-09-21T18:35:02.609Z,2245.609
2022-09-21T18:40:02.999Z,6740.764
2022-09-21T18:45:02.903Z,4315.24
2022-09-21T18:50:02.799Z,2380.842
2022-09-21T18:55:02.633Z,1176.0620000000001
2022-09-21T19:00:02.738Z,764.28
2022-09-21T19:05:02.612Z,490.04200000000003
2022-09-21T19:10:02.611Z,590.912
2022-09-21T19:15:02.615Z,1222.825
2022-09-21T19:20:02.636Z,1103.109
2022-09-21T19:25:02.855Z,562.5310000000001
2022-09-21T19:30:02.624Z,544.996
2022-09-21T19:35:02.634Z,443.601
2022-09-21T19:40:02.784Z,452.59700000000004
2022-09-21T19:45:02.850Z,1389.587
2022-09-21T19:50:02.687Z,2441.868
2022-09-21T19:55:02.674Z,2501.919
2022-09-21T20:00:02.637Z,2787.16
2022-09-21T20:05:02.716Z,3209.54
2022-09-21T20:10:02.890Z,1124.505
2022-09-21T20:15:02.641Z,368.806
2022-09-21T20:20:02.661Z,423.433
2022-09-21T20:25:02.650Z,704.671
2022-09-21T20:30:02.798Z,528.42
2022-09-21T20:35:02.687Z,355.72700000000003
2022-09-21T20:40:02.766Z,357.404
2022-09-21T20:45:02.690Z,562.572
2022-09-21T20:50:02.709Z,605.5260000000001
2022-09-21T20:55:02.866Z,419.004
2022-09-21T21:00:02.690Z,408.452
2022-09-21T21:05:02.672Z,315.31
2022-09-21T21:10:02.746Z,669.126
2022-09-21T21:15:02.849Z,236.233
2022-09-21T21:20:02.734Z,240.23600000000002
2022-09-21T21:25:02.713Z,1830.459
2022-09-21T21:30:02.724Z,2554.235
2022-09-21T21:35:02.819Z,2629.995
2022-09-21T21:40:03.504Z,2713.349
2022-09-21T21:45:02.717Z,2441.437
2022-09-21T21:50:05.917Z,2717.9210000000003
2022-09-21T21:55:05.821Z,589.529
2022-09-21T22:00:05.968Z,601.618
2022-09-21T22:05:05.979Z,574.624
2022-09-21T22:10:05.832Z,268.782
2022-09-21T22:15:05.826Z,290.523
2022-09-21T22:20:05.807Z,331.915
2022-09-21T22:25:06.023Z,713.894
2022-09-21T22:30:06.249Z,628.078
2022-09-21T22:35:06.533Z,563.273
2022-09-21T22:40:05.835Z,608.464
2022-09-21T22:45:06.146Z,592.331
2022-09-21T22:50:05.813Z,179.39600000000002
2022-09-21T22:55:05.813Z,178.346
2022-09-21T23:00:05.838Z,838.186
2022-09-21T23:05:06.216Z,2803.733
2022-09-21T23:10:05.853Z,2734.745
2022-09-21T23:15:05.830Z,2344.935
2022-09-21T23:20:05.845Z,2564.396
2022-09-21T23:25:05.900Z,2216.145
2022-09-21T23:30:06.076Z,150.876
2022-09-21T23:35:05.832Z,147.544
2022-09-21T23:40:05.990Z,416.577
2022-09-21T23:45:05.896Z,481.219
2022-09-21T23:50:06.035Z,287.717
2022-09-21T23:55:05.844Z,280.778
